createdAt,value
2018-09-24T00:00:40.689Z,9.40
2018-09-24T00:03:08.199Z,9.40
2018-09-24T00:05:35.741Z,9.40
2018-09-24T00:08:03.153Z,9.30
2018-09-24T00:10:30.562Z,9.30
2018-09-24T00:12:57.957Z,9.30
2018-09-24T00:15:25.349Z,9.30
2018-09-24T00:17:52.774Z,9.30
2018-09-24T00:20:20.157Z,9.30
2018-09-24T00:22:47.553Z,9.30
2018-09-24T00:25:14.949Z,9.20
2018-09-24T00:27:42.348Z,9.30
2018-09-24T00:30:09.779Z,9.20
2018-09-24T00:32:37.185Z,9.30
2018-09-24T00:35:04.618Z,9.20
2018-09-24T00:37:32.013Z,9.20
2018-09-24T00:39:59.419Z,9.10
2018-09-24T00:42:26.813Z,9.20
2018-09-24T00:44:54.212Z,9.20
2018-09-24T00:47:21.602Z,9.10
2018-09-24T00:49:49.013Z,9.20
2018-09-24T00:52:16.412Z,9.20
2018-09-24T00:54:43.817Z,9.10
2018-09-24T00:57:11.213Z,9.10
2018-09-24T00:59:38.621Z,9.20
2018-09-24T01:02:06.034Z,9.20
2018-09-24T01:04:33.417Z,9.10
2018-09-24T01:07:00.814Z,9.10
2018-09-24T01:09:28.201Z,9.10
2018-09-24T01:11:55.612Z,9.10
2018-09-24T01:14:23.029Z,9.10
2018-09-24T01:16:50.432Z,9.10
2018-09-24T01:19:17.821Z,9.00
2018-09-24T01:21:45.215Z,9.00
2018-09-24T01:24:12.621Z,9.10
2018-09-24T01:26:40.049Z,9.10
2018-09-24T01:29:07.721Z,9.00
2018-09-24T01:31:35.128Z,9.00
2018-09-24T01:34:02.523Z,9.10
2018-09-24T01:36:29.913Z,9.10
2018-09-24T01:38:57.314Z,9.00
2018-09-24T01:41:24.719Z,9.00
2018-09-24T01:43:52.106Z,9.00
2018-09-24T01:46:19.553Z,9.00
2018-09-24T01:48:46.917Z,8.90
2018-09-24T01:51:14.325Z,8.90
2018-09-24T01:53:41.718Z,8.90
2018-09-24T01:56:09.115Z,8.90
2018-09-24T01:58:36.715Z,8.90
2018-09-24T02:01:04.301Z,8.90
2018-09-24T02:03:32.316Z,8.90
2018-09-24T02:05:59.701Z,8.90
2018-09-24T02:08:27.122Z,8.80
2018-09-24T02:10:54.526Z,8.90
2018-09-24T02:13:21.942Z,8.80
2018-09-24T02:15:49.344Z,8.70
2018-09-24T02:18:16.742Z,8.70
2018-09-24T02:20:44.161Z,8.70
2018-09-24T02:23:11.551Z,8.60
2018-09-24T02:25:38.969Z,8.60
2018-09-24T02:28:06.559Z,8.60
2018-09-24T02:30:33.961Z,8.60
2018-09-24T02:33:02.077Z,8.60
2018-09-24T02:35:29.477Z,8.60
2018-09-24T02:37:56.869Z,8.60
2018-09-24T02:40:24.853Z,8.60
2018-09-24T02:42:52.264Z,8.60
2018-09-24T02:45:19.857Z,8.60
2018-09-24T02:47:47.249Z,8.60
2018-09-24T02:50:14.665Z,8.60
2018-09-24T02:52:42.062Z,8.60
2018-09-24T02:55:09.923Z,8.60
2018-09-24T02:57:37.325Z,8.70
2018-09-24T03:00:04.713Z,8.70
2018-09-24T03:02:32.105Z,8.70
2018-09-24T03:04:59.498Z,8.70
2018-09-24T03:07:26.886Z,8.70
2018-09-24T03:09:54.273Z,8.70
2018-09-24T03:12:21.665Z,8.70
2018-09-24T03:14:49.033Z,8.70
2018-09-24T03:17:16.885Z,8.70
2018-09-24T03:19:44.274Z,8.70
2018-09-24T03:22:16.181Z,8.60
2018-09-24T03:24:43.566Z,8.60
2018-09-24T03:27:10.954Z,8.60
2018-09-24T03:29:38.345Z,8.60
2018-09-24T03:32:05.877Z,8.60
2018-09-24T03:34:33.277Z,8.70
2018-09-24T03:37:00.658Z,8.70
2018-09-24T03:39:28.082Z,8.60
2018-09-24T03:41:55.496Z,8.60
2018-09-24T03:44:22.882Z,8.50
2018-09-24T03:46:50.302Z,8.40
2018-09-24T03:49:17.706Z,8.30
2018-09-24T03:51:45.093Z,8.30
2018-09-24T03:54:12.495Z,8.20
2018-09-24T03:56:39.886Z,8.20
2018-09-24T03:59:07.659Z,8.20
2018-09-24T04:01:35.015Z,8.20
2018-09-24T04:04:07.860Z,8.30
2018-09-24T04:06:40.735Z,8.30
2018-09-24T04:09:13.746Z,8.20
2018-09-24T04:11:46.852Z,8.10
2018-09-24T04:14:19.821Z,8.00
2018-09-24T04:16:52.741Z,8.00
2018-09-24T04:19:25.709Z,7.90
2018-09-24T04:21:58.618Z,8.00
2018-09-24T04:24:31.461Z,7.90
2018-09-24T04:27:04.453Z,7.80
2018-09-24T04:29:37.413Z,7.80
2018-09-24T04:32:10.326Z,7.70
2018-09-24T04:34:43.181Z,7.70
2018-09-24T04:37:16.141Z,7.70
2018-09-24T04:39:49.054Z,7.70
2018-09-24T04:42:21.957Z,7.70
2018-09-24T04:44:54.951Z,7.70
2018-09-24T04:47:27.941Z,7.60
2018-09-24T04:50:01.006Z,7.60
2018-09-24T04:52:33.958Z,7.60
2018-09-24T04:55:06.845Z,7.70
2018-09-24T04:57:39.586Z,7.70
2018-09-24T05:00:12.441Z,7.60
2018-09-24T05:02:45.458Z,7.60
2018-09-24T05:05:18.318Z,7.60
2018-09-24T05:07:51.213Z,7.70
2018-09-24T05:10:24.253Z,7.70
2018-09-24T05:12:57.542Z,7.70
2018-09-24T05:15:30.480Z,7.70
2018-09-24T05:18:03.506Z,7.60
2018-09-24T05:20:36.415Z,7.60
2018-09-24T05:23:09.406Z,7.60
2018-09-24T05:25:42.433Z,7.60
2018-09-24T05:28:15.369Z,7.50
2018-09-24T05:30:48.309Z,7.50
2018-09-24T05:33:21.177Z,7.50
2018-09-24T05:35:54.221Z,7.50
2018-09-24T05:38:27.180Z,7.50
2018-09-24T05:41:00.169Z,7.50
2018-09-24T05:43:33.069Z,7.50
2018-09-24T05:46:05.936Z,7.50
2018-09-24T05:48:38.889Z,7.70
2018-09-24T05:51:11.865Z,7.80
2018-09-24T05:53:44.673Z,7.80
2018-09-24T05:56:17.585Z,7.80
2018-09-24T05:58:50.598Z,7.80
2018-09-24T06:01:23.673Z,7.90
2018-09-24T06:03:56.775Z,7.80
2018-09-24T06:06:29.830Z,7.70
2018-09-24T06:09:02.757Z,7.80
2018-09-24T06:11:35.825Z,7.80
2018-09-24T06:14:08.819Z,7.90
2018-09-24T06:16:41.877Z,8.00
2018-09-24T06:19:14.777Z,8.00
2018-09-24T06:21:47.706Z,8.10
2018-09-24T06:24:20.720Z,8.10
2018-09-24T06:26:53.717Z,8.10
2018-09-24T06:29:26.677Z,8.10
2018-09-24T06:31:59.568Z,8.20
2018-09-24T06:34:32.462Z,8.20
2018-09-24T06:37:05.457Z,8.30
2018-09-24T06:39:38.161Z,8.30
2018-09-24T06:42:11.126Z,8.30
2018-09-24T06:44:44.065Z,8.40
2018-09-24T06:47:17.054Z,8.50
2018-09-24T06:49:50.101Z,8.50
2018-09-24T06:52:23.061Z,8.50
2018-09-24T06:54:56.057Z,8.50
2018-09-24T06:57:28.815Z,8.60
2018-09-24T07:00:01.806Z,8.60
2018-09-24T07:02:34.825Z,8.60
2018-09-24T07:05:07.720Z,8.70
2018-09-24T07:07:40.649Z,8.80
2018-09-24T07:10:13.669Z,8.80
2018-09-24T07:12:46.569Z,8.80
2018-09-24T07:15:19.669Z,8.80
2018-09-24T07:17:52.658Z,8.80
2018-09-24T07:20:25.646Z,8.90
2018-09-24T07:22:58.594Z,9.00
2018-09-24T07:25:31.478Z,8.90
2018-09-24T07:28:04.491Z,8.90
2018-09-24T07:30:37.453Z,9.00
2018-09-24T07:33:10.558Z,9.10
2018-09-24T07:35:43.449Z,9.20
2018-09-24T07:38:16.325Z,9.20
2018-09-24T07:40:49.268Z,9.20
2018-09-24T07:43:22.238Z,9.30
2018-09-24T07:45:55.222Z,9.40
2018-09-24T07:48:27.993Z,9.40
2018-09-24T07:51:00.993Z,9.40
2018-09-24T07:53:33.946Z,9.30
2018-09-24T07:56:06.910Z,9.40
2018-09-24T07:58:39.800Z,9.50
2018-09-24T08:01:12.721Z,9.60
2018-09-24T08:03:45.501Z,9.80
2018-09-24T08:06:18.490Z,9.80
2018-09-24T08:08:51.301Z,9.80
2018-09-24T08:11:24.264Z,9.80
2018-09-24T08:13:57.125Z,9.90
2018-09-24T08:16:30.193Z,9.90
2018-09-24T08:19:03.132Z,10.00
2018-09-24T08:21:36.037Z,10.20
2018-09-24T08:24:08.885Z,10.20
2018-09-24T08:26:41.918Z,10.40
2018-09-24T08:29:14.801Z,10.40
2018-09-24T08:31:47.740Z,10.40
2018-09-24T08:34:20.806Z,10.30
2018-09-24T08:36:53.738Z,10.30
2018-09-24T08:39:26.582Z,10.30
2018-09-24T08:41:59.425Z,10.30
2018-09-24T08:44:32.337Z,10.40
2018-09-24T08:47:05.326Z,10.60
2018-09-24T08:49:38.272Z,10.70
2018-09-24T08:52:11.287Z,10.60
2018-09-24T08:54:44.307Z,10.50
2018-09-24T08:57:17.213Z,10.60
2018-09-24T08:59:50.069Z,10.70
2018-09-24T09:02:23.038Z,10.90
2018-09-24T09:04:56.001Z,10.90
2018-09-24T09:07:28.919Z,11.10
2018-09-24T09:10:01.878Z,11.20
2018-09-24T09:12:34.801Z,11.30
2018-09-24T09:15:07.781Z,11.50
2018-09-24T09:17:40.793Z,11.40
2018-09-24T09:20:13.846Z,11.50
2018-09-24T09:22:46.721Z,11.70
2018-09-24T09:25:19.627Z,11.70
2018-09-24T09:27:52.681Z,11.80
2018-09-24T09:30:25.718Z,12.00
2018-09-24T09:32:58.719Z,12.00
2018-09-24T09:35:31.749Z,11.80
2018-09-24T09:38:04.714Z,11.60
2018-09-24T09:40:37.549Z,11.40
2018-09-24T09:43:10.376Z,11.60
2018-09-24T09:45:43.339Z,11.80
2018-09-24T09:48:16.253Z,12.00
2018-09-24T09:50:49.042Z,12.10
2018-09-24T09:53:21.937Z,12.00
2018-09-24T09:55:54.821Z,11.70
2018-09-24T09:58:27.678Z,11.40
2018-09-24T10:01:00.669Z,11.50
2018-09-24T10:03:33.728Z,11.70
2018-09-24T10:06:06.577Z,12.00
2018-09-24T10:08:39.445Z,12.20
2018-09-24T10:11:12.524Z,12.30
2018-09-24T10:13:45.369Z,12.00
2018-09-24T10:16:18.233Z,11.80
2018-09-24T10:18:51.230Z,11.60
2018-09-24T10:21:24.193Z,11.60
2018-09-24T10:23:57.181Z,11.80
2018-09-24T10:26:30.217Z,12.10
2018-09-24T10:29:03.013Z,12.40
2018-09-24T10:31:35.886Z,12.30
2018-09-24T10:34:08.618Z,12.30
2018-09-24T10:36:41.533Z,12.20
2018-09-24T10:39:14.295Z,12.10
2018-09-24T10:41:47.645Z,11.90
2018-09-24T10:44:20.557Z,11.80
2018-09-24T10:46:53.513Z,11.90
2018-09-24T10:49:26.510Z,12.10
2018-09-24T10:51:59.437Z,12.50
2018-09-24T10:54:32.429Z,13.00
2018-09-24T10:57:05.442Z,13.60
2018-09-24T10:59:38.464Z,14.10
2018-09-24T11:02:11.462Z,14.40
2018-09-24T11:04:44.551Z,14.00
2018-09-24T11:07:17.434Z,13.50
2018-09-24T11:09:50.433Z,12.80
2018-09-24T11:12:23.462Z,12.70
2018-09-24T11:14:56.429Z,13.70
2018-09-24T11:17:29.545Z,14.60
2018-09-24T11:20:02.315Z,14.10
2018-09-24T11:22:35.151Z,13.80
2018-09-24T11:25:08.013Z,13.50
2018-09-24T11:27:41.025Z,13.80
2018-09-24T11:30:13.922Z,14.70
2018-09-24T11:32:46.937Z,14.80
2018-09-24T11:35:19.953Z,14.30
2018-09-24T11:37:53.041Z,14.30
2018-09-24T11:40:26.003Z,14.60
2018-09-24T11:42:58.765Z,14.10
2018-09-24T11:45:31.728Z,14.80
2018-09-24T11:48:04.693Z,15.20
2018-09-24T11:50:37.609Z,15.70
2018-09-24T11:53:10.473Z,15.70
2018-09-24T11:55:43.366Z,15.10
2018-09-24T11:58:16.434Z,14.30
2018-09-24T12:00:49.347Z,14.20
2018-09-24T12:03:22.229Z,15.00
2018-09-24T12:05:55.329Z,16.00
2018-09-24T12:08:28.326Z,16.80
2018-09-24T12:11:01.082Z,16.40
2018-09-24T12:13:34.017Z,16.60
2018-09-24T12:16:07.025Z,16.60
2018-09-24T12:18:39.877Z,16.70
2018-09-24T12:21:12.661Z,16.20
2018-09-24T12:23:45.625Z,16.50
2018-09-24T12:26:18.653Z,16.70
2018-09-24T12:28:51.704Z,16.50
2018-09-24T12:31:24.717Z,15.70
2018-09-24T12:33:57.789Z,14.70
2018-09-24T12:36:30.749Z,14.60
2018-09-24T12:39:03.797Z,14.20
2018-09-24T12:41:36.814Z,14.00
2018-09-24T12:44:09.630Z,14.70
2018-09-24T12:46:42.532Z,15.20
2018-09-24T12:49:15.440Z,15.80
2018-09-24T12:51:48.334Z,16.90
2018-09-24T12:54:21.330Z,17.20
2018-09-24T12:56:54.181Z,17.50
2018-09-24T12:59:27.185Z,17.70
2018-09-24T13:02:00.153Z,18.10
2018-09-24T13:04:32.969Z,18.30
2018-09-24T13:07:05.837Z,17.30
2018-09-24T13:09:38.808Z,16.20
2018-09-24T13:12:11.589Z,15.60
2018-09-24T13:14:44.569Z,15.00
2018-09-24T13:17:17.573Z,14.50
2018-09-24T13:19:50.515Z,14.40
2018-09-24T13:22:23.453Z,14.20
2018-09-24T13:24:56.337Z,14.50
2018-09-24T13:27:29.210Z,15.50
2018-09-24T13:30:02.061Z,15.50
2018-09-24T13:32:35.087Z,15.10
2018-09-24T13:35:07.954Z,16.00
2018-09-24T13:37:41.010Z,15.70
2018-09-24T13:40:13.977Z,15.30
2018-09-24T13:42:46.965Z,15.30
2018-09-24T13:45:20.046Z,16.00
2018-09-24T13:47:52.757Z,17.10
2018-09-24T13:50:25.665Z,17.40
2018-09-24T13:52:58.536Z,18.00
2018-09-24T13:55:31.598Z,17.90
2018-09-24T13:58:04.565Z,18.10
2018-09-24T14:00:37.462Z,17.90
2018-09-24T14:03:10.361Z,17.70
2018-09-24T14:05:43.281Z,17.30
2018-09-24T14:08:16.250Z,17.10
2018-09-24T14:10:49.224Z,17.30
2018-09-24T14:13:22.089Z,17.20
2018-09-24T14:15:54.881Z,17.10
2018-09-24T14:18:27.947Z,17.10
2018-09-24T14:21:00.881Z,17.40
2018-09-24T14:23:33.889Z,16.70
2018-09-24T14:26:06.805Z,16.00
2018-09-24T14:28:39.632Z,15.80
2018-09-24T14:31:12.546Z,16.00
2018-09-24T14:33:45.516Z,16.60
2018-09-24T14:36:18.382Z,17.00
2018-09-24T14:38:51.406Z,16.90
2018-09-24T14:41:24.368Z,17.70
2018-09-24T14:43:57.311Z,17.30
2018-09-24T14:46:30.291Z,16.80
2018-09-24T14:49:03.306Z,16.60
2018-09-24T14:51:36.317Z,16.40
2018-09-24T14:54:09.213Z,15.70
2018-09-24T14:56:42.074Z,15.50
2018-09-24T14:59:14.914Z,16.00
2018-09-24T15:01:48.073Z,16.60
2018-09-24T15:04:20.900Z,17.00
2018-09-24T15:06:53.769Z,16.90
2018-09-24T15:09:26.682Z,16.50
2018-09-24T15:11:59.432Z,16.80
2018-09-24T15:14:32.289Z,16.80
2018-09-24T15:17:05.351Z,16.60
2018-09-24T15:19:38.314Z,16.10
2018-09-24T15:22:11.281Z,15.80
2018-09-24T15:24:44.280Z,16.10
2018-09-24T15:27:17.334Z,16.40
2018-09-24T15:29:50.355Z,17.00
2018-09-24T15:32:23.257Z,17.00
2018-09-24T15:34:56.227Z,16.80
2018-09-24T15:37:29.089Z,16.30
2018-09-24T15:40:02.015Z,16.90
2018-09-24T15:42:34.894Z,16.60
2018-09-24T15:45:07.767Z,16.70
2018-09-24T15:47:40.702Z,16.30
2018-09-24T15:50:13.743Z,15.90
2018-09-24T15:52:46.538Z,15.80
2018-09-24T15:55:19.462Z,15.70
2018-09-24T15:57:52.433Z,15.40
2018-09-24T16:00:25.373Z,15.50
2018-09-24T16:02:58.281Z,15.80
2018-09-24T16:05:31.276Z,15.70
2018-09-24T16:08:04.077Z,15.90
2018-09-24T16:10:36.989Z,15.70
2018-09-24T16:13:09.869Z,15.40
2018-09-24T16:15:43.133Z,15.20
2018-09-24T16:18:15.888Z,15.10
2018-09-24T16:20:48.949Z,15.00
2018-09-24T16:23:21.898Z,14.90
2018-09-24T16:25:54.845Z,14.80
2018-09-24T16:28:27.881Z,14.80
2018-09-24T16:31:00.886Z,14.70
2018-09-24T16:33:33.738Z,14.70
2018-09-24T16:36:06.681Z,14.50
2018-09-24T16:38:39.761Z,14.50
2018-09-24T16:41:12.737Z,14.30
2018-09-24T16:43:45.820Z,14.10
2018-09-24T16:46:18.785Z,13.80
2018-09-24T16:48:51.705Z,13.60
2018-09-24T16:51:24.722Z,13.50
2018-09-24T16:53:57.689Z,13.30
2018-09-24T16:56:30.626Z,13.10
2018-09-24T16:59:03.590Z,13.00
2018-09-24T17:01:36.528Z,13.00
2018-09-24T17:04:09.473Z,12.80
2018-09-24T17:06:42.413Z,12.80
2018-09-24T17:09:15.309Z,12.80
2018-09-24T17:11:48.219Z,12.70
2018-09-24T17:14:21.230Z,12.60
2018-09-24T17:16:54.093Z,12.50
2018-09-24T17:19:27.105Z,12.40
2018-09-24T17:22:00.080Z,12.40
2018-09-24T17:24:32.965Z,12.30
2018-09-24T17:27:05.777Z,12.20
2018-09-24T17:29:38.689Z,12.10
2018-09-24T17:32:11.666Z,12.20
2018-09-24T17:34:44.566Z,12.10
2018-09-24T17:37:17.623Z,12.00
2018-09-24T17:39:50.649Z,11.90
2018-09-24T17:42:23.549Z,11.80
2018-09-24T17:44:56.354Z,11.70
2018-09-24T17:47:29.191Z,11.70
2018-09-24T17:50:02.162Z,11.70
2018-09-24T17:52:35.097Z,11.70
2018-09-24T17:55:08.065Z,11.60
2018-09-24T17:57:41.097Z,11.60
2018-09-24T18:00:14.006Z,11.50
2018-09-24T18:02:47.096Z,11.50
2018-09-24T18:05:19.996Z,11.50
2018-09-24T18:07:52.919Z,11.40
2018-09-24T18:10:26.030Z,11.40
2018-09-24T18:12:58.824Z,11.30
2018-09-24T18:15:31.729Z,11.30
2018-09-24T18:18:04.609Z,11.30
2018-09-24T18:20:37.590Z,11.20
2018-09-24T18:23:10.596Z,11.20
2018-09-24T18:25:43.723Z,11.20
2018-09-24T18:28:16.700Z,11.20
2018-09-24T18:30:49.607Z,11.20
2018-09-24T18:33:22.555Z,11.10
2018-09-24T18:35:55.416Z,11.00
2018-09-24T18:38:28.381Z,10.90
2018-09-24T18:41:01.286Z,10.90
2018-09-24T18:43:34.197Z,10.80
2018-09-24T18:46:07.048Z,10.80
2018-09-24T18:48:39.974Z,10.70
2018-09-24T18:51:12.813Z,10.70
2018-09-24T18:53:45.817Z,10.60
2018-09-24T18:56:18.765Z,10.60
2018-09-24T18:58:51.740Z,10.60
2018-09-24T19:01:24.679Z,10.70
2018-09-24T19:03:57.821Z,10.70
2018-09-24T19:06:30.684Z,10.60
2018-09-24T19:09:03.643Z,10.60
2018-09-24T19:11:36.741Z,10.60
2018-09-24T19:14:09.913Z,10.50
2018-09-24T19:16:42.780Z,10.50
2018-09-24T19:19:16.673Z,10.40
2018-09-24T19:21:49.753Z,10.40
2018-09-24T19:24:22.542Z,10.40
2018-09-24T19:26:55.545Z,10.40
2018-09-24T19:29:28.522Z,10.30
2018-09-24T19:32:01.582Z,10.30
2018-09-24T19:34:34.561Z,10.30
2018-09-24T19:37:07.712Z,10.30
2018-09-24T19:39:40.473Z,10.30
2018-09-24T19:42:13.255Z,10.30
2018-09-24T19:44:46.182Z,10.30
2018-09-24T19:47:19.177Z,10.30
2018-09-24T19:49:52.081Z,10.30
2018-09-24T19:52:24.923Z,10.30
2018-09-24T19:54:57.804Z,10.20
2018-09-24T19:57:30.782Z,10.20
2018-09-24T20:00:03.696Z,10.10
2018-09-24T20:02:36.605Z,10.00
2018-09-24T20:05:09.549Z,10.00
2018-09-24T20:07:42.437Z,9.90
2018-09-24T20:10:15.459Z,9.90
2018-09-24T20:12:48.445Z,9.90
2018-09-24T20:15:21.477Z,9.80
2018-09-24T20:17:54.446Z,9.80
2018-09-24T20:20:27.368Z,9.80
2018-09-24T20:23:00.410Z,9.80
2018-09-24T20:25:33.375Z,9.80
2018-09-24T20:28:06.329Z,9.90
2018-09-24T20:30:39.281Z,10.00
2018-09-24T20:33:12.153Z,10.10
2018-09-24T20:35:45.145Z,10.10
2018-09-24T20:38:18.198Z,10.10
2018-09-24T20:40:51.300Z,10.10
2018-09-24T20:43:24.137Z,10.00
2018-09-24T20:45:57.034Z,9.90
2018-09-24T20:48:29.876Z,9.90
2018-09-24T20:51:02.842Z,9.80
2018-09-24T20:53:35.708Z,9.80
2018-09-24T20:56:08.698Z,9.80
2018-09-24T20:58:41.629Z,9.80
2018-09-24T21:01:14.646Z,9.80
2018-09-24T21:03:47.619Z,9.80
2018-09-24T21:06:20.432Z,9.70
2018-09-24T21:08:53.266Z,9.70
2018-09-24T21:11:26.212Z,9.80
2018-09-24T21:13:59.012Z,9.80
2018-09-24T21:16:31.924Z,9.80
2018-09-24T21:19:04.873Z,9.90
2018-09-24T21:21:37.582Z,9.90
2018-09-24T21:24:10.405Z,10.00
2018-09-24T21:26:43.199Z,10.00
2018-09-24T21:29:16.121Z,10.00
2018-09-24T21:31:49.171Z,10.00
2018-09-24T21:34:22.140Z,10.00
2018-09-24T21:36:55.042Z,9.90
2018-09-24T21:39:27.941Z,9.90
2018-09-24T21:42:01.066Z,9.90
2018-09-24T21:44:33.932Z,9.80
2018-09-24T21:47:06.820Z,9.90
2018-09-24T21:49:39.701Z,9.80
2018-09-24T21:52:12.761Z,9.70
2018-09-24T21:54:45.720Z,9.60
2018-09-24T21:57:18.670Z,9.60
2018-09-24T21:59:51.702Z,9.50
2018-09-24T22:02:24.815Z,9.50
2018-09-24T22:04:57.737Z,9.50
2018-09-24T22:07:30.638Z,9.50
2018-09-24T22:10:03.421Z,9.40
2018-09-24T22:12:36.336Z,9.40
2018-09-24T22:15:09.245Z,9.40
2018-09-24T22:17:42.133Z,9.40
2018-09-24T22:20:14.993Z,9.30
2018-09-24T22:22:47.992Z,9.30
2018-09-24T22:25:20.890Z,9.30
2018-09-24T22:27:53.793Z,9.30
2018-09-24T22:30:26.858Z,9.20
2018-09-24T22:32:59.733Z,9.20
2018-09-24T22:35:32.615Z,9.10
2018-09-24T22:38:05.509Z,9.10
2018-09-24T22:40:38.406Z,9.00
2018-09-24T22:43:11.421Z,9.00
2018-09-24T22:45:44.354Z,9.00
2018-09-24T22:48:17.269Z,9.00
2018-09-24T22:50:50.357Z,8.90
2018-09-24T22:53:23.416Z,8.70
2018-09-24T22:55:56.337Z,8.60
2018-09-24T22:58:29.209Z,8.50
2018-09-24T23:01:02.229Z,8.30
2018-09-24T23:03:35.298Z,8.20
2018-09-24T23:06:08.279Z,8.20
2018-09-24T23:08:47.853Z,8.20
2018-09-24T23:11:20.765Z,8.00
2018-09-24T23:13:53.638Z,7.90
2018-09-24T23:16:26.568Z,7.90
2018-09-24T23:18:59.537Z,8.00
2018-09-24T23:21:32.503Z,7.90
2018-09-24T23:24:05.505Z,7.90
2018-09-24T23:26:38.381Z,7.90
2018-09-24T23:29:11.293Z,8.00
2018-09-24T23:31:44.082Z,8.00
2018-09-24T23:34:17.012Z,7.90
2018-09-24T23:36:49.933Z,7.80
2018-09-24T23:39:23.061Z,7.70
2018-09-24T23:41:56.129Z,7.70
2018-09-24T23:44:29.164Z,7.60
2018-09-24T23:47:02.129Z,7.60
2018-09-24T23:49:34.970Z,7.50
2018-09-24T23:52:07.833Z,7.50
2018-09-24T23:54:40.717Z,7.50
2018-09-24T23:57:13.801Z,7.50
2018-09-24T23:59:46.806Z,7.40
